Time;durP1;ratioP1;P1;durP2;ratioP2;P2;SDS_P1;SDS_P2;PMS_P1;PMS_P2;Temp;Humidity;BMP_temperature;BMP_pressure;BME280_temperature;BME280_humidity;BME280_pressure;Samples;Min_cycle;Max_cycle;Signal;HPM_P1;HPM_P2
2022/07/15 00:01:24;;;;;;;3.38;2.35;;;;;;;18.36;57.06;98949.94;4130132;28;20209;-53
2022/07/15 00:03:26;;;;;;;4.35;1.98;;;;;;;18.28;57.35;98947.75;4129221;28;20721;-52
2022/07/15 00:05:28;;;;;;;4.32;3.40;;;;;;;18.25;57.42;98949.16;4112824;28;20847;-52
2022/07/15 00:07:30;;;;;;;2.47;1.98;;;;;;;18.27;57.79;98954.41;4129587;28;20276;-52
2022/07/15 00:11:53;;;;;;;3.47;2.00;;;;;;;18.13;58.07;98950.66;4130007;28;20234;-51
2022/07/15 00:13:55;;;;;;;2.70;1.60;;;;;;;18.10;58.06;98951.22;4129349;28;20202;-52
2022/07/15 00:16:03;;;;;;;5.22;1.98;;;;;;;18.13;57.94;98956.19;4129076;28;20210;-53
2022/07/15 00:18:05;;;;;;;2.13;1.50;;;;;;;18.14;57.98;98952.31;4130323;28;20210;-52
2022/07/15 00:20:09;;;;;;;6.22;1.90;;;;;;;18.08;58.18;98947.91;4113652;28;20672;-51
2022/07/15 00:22:11;;;;;;;6.18;2.88;;;;;;;18.02;58.10;98954.59;4128333;28;20747;-51
2022/07/15 00:24:13;;;;;;;3.80;2.83;;;;;;;18.00;58.32;98948.53;4128511;28;20750;-52
2022/07/15 00:26:15;;;;;;;4.00;3.00;;;;;;;17.91;58.39;98947.50;4126974;28;20260;-53
2022/07/15 00:28:19;;;;;;;3.03;2.63;;;;;;;17.88;58.55;98964.66;4127238;28;20214;-51
2022/07/15 00:30:22;;;;;;;2.40;2.13;;;;;;;17.83;58.63;98956.38;4129137;28;20284;-51
2022/07/15 00:32:25;;;;;;;3.53;1.95;;;;;;;17.75;58.79;98955.06;4128318;28;20210;-51
2022/07/15 00:34:26;;;;;;;10.65;2.50;;;;;;;17.70;58.91;98952.31;4126201;28;20202;-52
2022/07/15 00:36:29;;;;;;;2.72;1.63;;;;;;;17.65;58.75;98957.06;4129363;28;20202;-52
2022/07/15 00:38:30;;;;;;;4.30;2.00;;;;;;;17.57;59.10;98949.31;4146846;28;20209;-51
2022/07/15 00:40:39;;;;;;;3.75;1.85;;;;;;;17.48;59.00;98948.25;4120345;28;20226;-52
2022/07/15 00:42:44;;;;;;;2.38;2.00;;;;;;;17.47;59.03;98946.63;4124346;28;20206;-52
2022/07/15 00:44:45;;;;;;;4.93;2.50;;;;;;;17.45;59.19;98954.38;4145978;28;20974;-51
2022/07/15 00:46:47;;;;;;;2.17;1.63;;;;;;;17.47;59.04;98952.16;4126701;28;21035;-51
2022/07/15 00:48:49;;;;;;;4.10;2.33;;;;;;;17.48;58.96;98945.50;4127831;28;20202;-52
2022/07/15 00:50:51;;;;;;;5.30;1.83;;;;;;;17.47;59.13;98952.16;4127061;28;20210;-52
2022/07/15 00:53:17;;;;;;;3.72;2.13;;;;;;;17.43;59.31;98948.28;4128145;28;20253;-51
2022/07/15 00:55:18;;;;;;;2.80;2.17;;;;;;;17.38;59.37;98949.13;4120504;28;21022;-51
2022/07/15 00:57:21;;;;;;;2.83;2.40;;;;;;;17.35;59.28;98952.47;4126670;28;20281;-52
2022/07/15 00:59:31;;;;;;;7.68;2.08;;;;;;;17.29;59.49;98947.22;4138221;28;20229;-52
2022/07/15 01:01:35;;;;;;;3.33;1.70;;;;;;;17.29;59.48;98949.97;4116879;28;20210;-52
2022/07/15 01:03:37;;;;;;;4.05;2.35;;;;;;;17.23;59.53;98945.56;4132562;28;20681;-52
2022/07/15 01:05:39;;;;;;;2.90;1.70;;;;;;;17.20;59.77;98940.63;4111295;28;20203;-51
2022/07/15 01:07:40;;;;;;;2.88;2.08;;;;;;;17.20;59.56;98946.16;4127309;28;20206;-51
2022/07/15 01:09:42;;;;;;;4.72;2.50;;;;;;;17.19;59.60;98944.50;4110761;28;20277;-51
2022/07/15 01:11:44;;;;;;;6.90;2.28;;;;;;;17.16;59.77;98939.50;4128105;28;20252;-52
2022/07/15 01:13:45;;;;;;;2.97;1.90;;;;;;;17.17;59.72;98941.16;4111233;28;20678;-52
2022/07/15 01:15:48;;;;;;;5.28;2.33;;;;;;;17.09;59.89;98939.81;4122435;28;20705;-51
2022/07/15 01:17:50;;;;;;;2.13;1.48;;;;;;;17.10;59.92;98941.47;4127073;28;21004;-52
2022/07/15 01:19:52;;;;;;;2.20;1.70;;;;;;;17.13;59.96;98942.84;4142279;28;20229;-52
2022/07/15 01:21:53;;;;;;;4.18;1.98;;;;;;;17.09;59.96;98939.81;4126645;28;20206;-51
2022/07/15 01:23:55;;;;;;;3.13;1.75;;;;;;;17.07;60.08;98941.22;4130130;28;20803;-52
2022/07/15 01:25:57;;;;;;;2.85;2.20;;;;;;;17.07;60.38;98952.28;4126911;28;20260;-51
2022/07/15 01:27:59;;;;;;;3.85;2.38;;;;;;;17.07;60.52;98952.28;4111684;28;20210;-51
2022/07/15 01:30:01;;;;;;;2.33;1.95;;;;;;;17.03;60.47;98949.25;4127218;28;20225;-52
2022/07/15 01:32:03;;;;;;;2.85;2.30;;;;;;;17.04;60.45;98947.28;4126138;28;20633;-52
2022/07/15 01:34:05;;;;;;;2.10;1.77;;;;;;;17.06;60.30;98950.63;4127119;28;20202;-52
2022/07/15 01:36:07;;;;;;;6.03;1.90;;;;;;;17.05;60.60;98938.72;4126967;28;20764;-52
2022/07/15 01:38:09;;;;;;;2.65;1.60;;;;;;;17.02;60.56;98932.91;4125747;28;20245;-52
2022/07/15 01:40:11;;;;;;;2.30;2.10;;;;;;;17.02;60.67;98938.44;4126867;28;20225;-51
2022/07/15 01:42:12;;;;;;;4.35;1.95;;;;;;;16.99;60.76;98939.03;4109465;28;20211;-53
2022/07/15 01:44:14;;;;;;;2.70;2.08;;;;;;;17.04;60.57;98947.28;4127491;28;20737;-52
2022/07/15 01:46:16;;;;;;;2.55;2.35;;;;;;;17.01;60.63;98936.81;4127988;28;20241;-51
2022/07/15 01:50:38;;;;;;;2.67;1.83;;;;;;;16.87;60.95;98945.94;4129342;28;20229;-52
2022/07/15 01:52:40;;;;;;;4.70;1.95;;;;;;;16.81;60.76;98942.38;4125870;28;20665;-56
2022/07/15 01:54:41;;;;;;;4.10;2.15;;;;;;;16.73;61.31;98937.44;4125838;28;20261;-52
2022/07/15 01:56:43;;;;;;;3.00;2.20;;;;;;;16.64;61.46;98939.09;4125859;28;20214;-52
2022/07/15 01:58:45;;;;;;;5.32;2.35;;;;;;;16.60;61.54;98945.44;4125313;28;20214;-52
2022/07/15 02:00:48;;;;;;;3.88;1.70;;;;;;;16.55;61.51;98949.06;4125430;28;20756;-52
2022/07/15 02:02:50;;;;;;;4.13;2.20;;;;;;;16.51;61.52;98945.22;4125998;28;20214;-52
2022/07/15 02:04:52;;;;;;;2.72;2.10;;;;;;;16.53;61.52;98945.75;4142501;28;20238;-52
2022/07/15 02:06:54;;;;;;;4.55;1.98;;;;;;;16.46;61.58;98942.44;4125199;28;20218;-52
2022/07/15 02:08:56;;;;;;;2.65;2.13;;;;;;;16.45;61.44;98943.56;4124767;28;20322;-52
2022/07/15 02:10:57;;;;;;;6.93;2.15;;;;;;;16.43;61.52;98945.75;4127373;28;20241;-52
2022/07/15 02:12:59;;;;;;;3.35;2.65;;;;;;;16.39;61.74;98946.56;4125438;28;20797;-54
2022/07/15 02:15:01;;;;;;;2.70;1.92;;;;;;;16.34;61.96;98941.00;4128369;28;20202;-52
2022/07/15 02:17:03;;;;;;;2.10;1.90;;;;;;;16.32;62.07;98944.06;4109626;28;20202;-52
2022/07/15 02:19:05;;;;;;;3.80;2.80;;;;;;;16.28;62.14;98942.13;4127023;28;20225;-52
2022/07/15 02:21:07;;;;;;;5.65;2.30;;;;;;;16.28;62.19;98945.72;4112005;28;20283;-52
2022/07/15 02:23:09;;;;;;;3.10;2.78;;;;;;;16.31;61.96;98942.44;4109798;28;20257;-52
2022/07/15 02:25:11;;;;;;;2.90;2.33;;;;;;;16.25;62.03;98946.28;4124180;28;20241;-52
2022/07/15 02:27:13;;;;;;;3.17;2.17;;;;;;;16.19;62.07;98950.16;4126905;28;20203;-52
2022/07/15 02:29:16;;;;;;;3.63;1.98;;;;;;;16.13;62.20;98951.25;4126662;28;20235;-52
2022/07/15 02:31:18;;;;;;;2.85;2.65;;;;;;;16.11;62.08;98950.69;4126563;28;20203;-52
2022/07/15 02:33:20;;;;;;;3.42;2.38;;;;;;;16.04;62.37;98952.88;4126712;28;20659;-52
2022/07/15 02:35:22;;;;;;;4.03;2.38;;;;;;;16.02;62.36;98952.34;4120864;28;20264;-53
2022/07/15 02:37:24;;;;;;;3.85;2.20;;;;;;;16.03;62.18;98945.69;4123933;28;20214;-53
2022/07/15 02:39:26;;;;;;;3.40;2.70;;;;;;;16.08;62.28;98942.94;4111426;28;20234;-53
2022/07/15 02:41:27;;;;;;;2.80;2.10;;;;;;;16.12;62.32;98943.22;4126501;28;20241;-53
2022/07/15 02:43:29;;;;;;;3.80;2.10;;;;;;;16.17;62.16;98952.34;4125903;28;20741;-52
2022/07/15 02:45:34;;;;;;;2.88;2.50;;;;;;;16.18;62.15;98951.25;4123240;28;20214;-52
2022/07/15 02:47:36;;;;;;;3.15;2.28;;;;;;;16.13;62.38;98945.72;4126451;28;20617;-54
2022/07/15 02:49:37;;;;;;;3.08;2.08;;;;;;;16.07;62.09;98957.03;4141926;28;20743;-52
2022/07/15 02:51:39;;;;;;;5.28;2.17;;;;;;;16.06;62.44;98958.13;4125315;28;20206;-53
2022/07/15 02:53:41;;;;;;;2.35;1.92;;;;;;;16.12;62.39;98963.41;4126938;28;20202;-52
2022/07/15 02:55:42;;;;;;;3.65;1.92;;;;;;;16.16;62.28;98970.00;4118246;28;20205;-52
2022/07/15 02:57:44;;;;;;;3.65;1.85;;;;;;;16.14;62.21;98969.47;4127236;28;20695;-52
2022/07/15 02:59:46;;;;;;;2.60;2.22;;;;;;;16.12;62.42;98971.69;4125799;28;20257;-53
2022/07/15 03:01:47;;;;;;;4.53;2.13;;;;;;;16.06;62.44;98961.72;4125827;28;20209;-52
2022/07/15 03:03:49;;;;;;;3.42;1.92;;;;;;;16.00;62.62;98964.75;4126277;28;20233;-52
2022/07/15 03:05:51;;;;;;;3.53;1.85;;;;;;;15.94;62.63;98972.19;4125406;28;20206;-52
2022/07/15 03:07:53;;;;;;;2.13;1.85;;;;;;;15.90;62.80;98978.53;4109740;28;20557;-52
2022/07/15 03:09:55;;;;;;;3.25;2.15;;;;;;;15.90;62.88;98978.53;4127956;28;20709;-53
2022/07/15 03:11:56;;;;;;;3.20;2.30;;;;;;;15.92;62.87;98992.91;4126128;28;21367;-53
2022/07/15 03:13:58;;;;;;;2.83;2.00;;;;;;;15.86;63.11;98994.81;4124375;28;20217;-54
2022/07/15 03:16:00;;;;;;;2.47;2.28;;;;;;;15.90;63.04;98984.06;4125378;28;20670;-53
2022/07/15 03:18:02;;;;;;;3.60;2.20;;;;;;;15.41;64.47;98991.91;4125698;28;20210;-52
2022/07/15 03:20:04;;;;;;;7.35;3.25;;;;;;;15.34;64.87;98991.31;4124103;28;20314;-52
2022/07/15 03:22:06;;;;;;;4.13;2.30;;;;;;;15.35;64.67;98987.47;4127101;28;20241;-52
2022/07/15 03:24:08;;;;;;;4.55;3.13;;;;;;;15.40;64.51;98987.50;4129059;28;20701;-52
2022/07/15 03:26:09;;;;;;;2.58;2.20;;;;;;;15.46;64.57;98993.84;4127137;28;20213;-53
2022/07/15 03:28:11;;;;;;;5.50;2.15;;;;;;;15.48;64.33;98998.00;4127943;28;20219;-53
2022/07/15 03:30:13;;;;;;;3.40;2.58;;;;;;;15.49;64.05;98994.13;4127988;28;20222;-53
2022/07/15 03:32:15;;;;;;;2.38;2.00;;;;;;;15.53;63.84;98994.44;4126341;28;20606;-54
2022/07/15 03:34:17;;;;;;;4.93;2.33;;;;;;;15.59;63.99;98996.94;4128857;28;20198;-52
2022/07/15 03:36:19;;;;;;;2.95;2.58;;;;;;;15.33;64.53;99000.69;4128851;28;20201;-53
2022/07/15 03:38:21;;;;;;;3.85;2.40;;;;;;;15.34;64.66;99007.03;4127291;28;20701;-53
2022/07/15 03:40:23;;;;;;;4.28;2.40;;;;;;;15.35;64.60;98989.41;4138151;28;20225;-53
2022/07/15 03:42:24;;;;;;;5.82;2.72;;;;;;;15.41;64.31;99000.19;4145210;28;22257;-53
2022/07/15 03:44:26;;;;;;;3.00;1.88;;;;;;;15.41;64.19;98999.34;4128348;28;20230;-53
2022/07/15 03:46:29;;;;;;;3.20;2.65;;;;;;;15.35;64.76;99009.53;4128313;28;20812;-53
2022/07/15 03:48:31;;;;;;;2.45;2.17;;;;;;;15.31;64.49;99004.78;4127089;28;20341;-53
2022/07/15 03:50:33;;;;;;;1.77;1.67;;;;;;;15.29;64.72;99004.25;4127825;28;20747;-52
2022/07/15 03:52:35;;;;;;;2.97;2.67;;;;;;;15.31;64.40;99013.88;4129428;28;20206;-54
2022/07/15 03:54:36;;;;;;;2.78;1.88;;;;;;;15.33;64.55;99006.22;4128135;28;20218;-53
2022/07/15 03:56:38;;;;;;;2.38;1.95;;;;;;;15.31;64.63;99008.34;4129951;28;20624;-53
2022/07/15 03:58:40;;;;;;;3.53;2.22;;;;;;;15.24;64.76;99018.00;4143295;28;20198;-54
2022/07/15 04:00:42;;;;;;;2.83;2.20;;;;;;;15.12;65.03;99022.88;4125496;28;20314;-54
2022/07/15 04:02:44;;;;;;;3.53;2.05;;;;;;;15.18;64.78;99019.91;4127320;28;20241;-52
2022/07/15 04:04:48;;;;;;;2.53;2.33;;;;;;;15.20;64.56;99019.59;4127935;28;20226;-52
2022/07/15 04:06:50;;;;;;;2.72;1.80;;;;;;;15.21;64.93;99018.50;4128592;28;20214;-53
2022/07/15 04:08:55;;;;;;;5.18;2.22;;;;;;;15.21;64.85;99019.34;4128005;28;20210;-52
2022/07/15 04:10:57;;;;;;;6.80;2.38;;;;;;;15.26;64.71;99013.88;4122230;28;20210;-53
2022/07/15 04:12:58;;;;;;;3.53;1.98;;;;;;;15.24;64.78;99016.03;4128631;28;20210;-52
2022/07/15 04:15:00;;;;;;;2.78;1.92;;;;;;;15.22;64.77;99007.22;4127108;28;20487;-53
2022/07/15 04:17:02;;;;;;;2.60;2.40;;;;;;;15.26;64.64;99016.63;4126958;28;20214;-53
2022/07/15 04:19:05;;;;;;;2.72;2.53;;;;;;;15.29;64.72;99016.06;4126624;28;20238;-53
2022/07/15 04:21:06;;;;;;;2.50;2.05;;;;;;;15.34;64.52;99018.91;4145563;28;20618;-52
2022/07/15 04:23:08;;;;;;;2.33;2.10;;;;;;;15.34;64.52;99021.66;4122471;28;20214;-53
2022/07/15 04:25:13;;;;;;;2.88;2.30;;;;;;;15.31;64.65;99019.38;4140911;28;20221;-52
2022/07/15 04:27:15;;;;;;;3.47;2.42;;;;;;;15.33;64.53;99031.03;4127460;28;20214;-52
2022/07/15 04:29:17;;;;;;;2.65;2.25;;;;;;;15.31;64.88;99024.91;4145887;28;20588;-52
2022/07/15 04:31:19;;;;;;;4.60;2.35;;;;;;;15.30;64.79;99028.75;4127293;28;20258;-52
2022/07/15 04:33:20;;;;;;;2.35;1.90;;;;;;;15.29;64.97;99032.63;4143650;28;20260;-53
2022/07/15 04:35:22;;;;;;;3.05;2.13;;;;;;;15.28;65.03;99025.44;4127293;28;20206;-52
2022/07/15 04:37:24;;;;;;;2.58;2.25;;;;;;;15.29;64.83;99021.59;4125702;28;20670;-53
2022/07/15 04:39:26;;;;;;;4.00;2.30;;;;;;;15.30;65.07;99028.75;4109763;28;20238;-53
2022/07/15 04:41:27;;;;;;;3.40;2.25;;;;;;;15.32;65.05;99032.13;4110046;28;20238;-54
2022/07/15 04:43:29;;;;;;;2.60;2.33;;;;;;;15.35;64.93;99026.06;4120919;28;20218;-53
2022/07/15 04:45:31;;;;;;;2.08;1.88;;;;;;;15.39;64.75;99029.97;4126210;28;20234;-52
2022/07/15 04:47:33;;;;;;;2.28;1.70;;;;;;;15.40;64.77;99028.88;4128364;28;20210;-53
2022/07/15 04:51:55;;;;;;;3.05;2.75;;;;;;;15.37;65.47;99023.88;4142811;28;20201;-52
2022/07/15 04:53:57;;;;;;;3.65;2.55;;;;;;;15.43;65.33;99033.81;4126179;28;20687;-52
2022/07/15 04:56:04;;;;;;;5.15;1.98;;;;;;;15.54;65.12;99026.44;4127559;28;20214;-53
2022/07/15 04:58:06;;;;;;;6.28;2.60;;;;;;;15.55;64.65;99030.88;4126912;28;20202;-53
2022/07/15 05:00:09;;;;;;;6.22;1.83;;;;;;;15.57;64.78;99032.22;4144413;28;20295;-53
2022/07/15 05:02:11;;;;;;;4.25;2.17;;;;;;;15.63;64.93;99028.41;4127939;28;20206;-52
2022/07/15 05:04:13;;;;;;;5.30;2.28;;;;;;;15.65;64.92;99031.75;4128069;28;20693;-53
2022/07/15 05:06:14;;;;;;;5.35;2.08;;;;;;;15.61;65.12;99025.09;4126278;28;20206;-52
2022/07/15 05:08:16;;;;;;;3.17;1.95;;;;;;;15.65;64.87;99028.97;4125016;28;20206;-53
2022/07/15 05:10:18;;;;;;;5.15;1.90;;;;;;;15.73;64.84;99038.66;4126282;28;20230;-52
2022/07/15 05:12:20;;;;;;;4.05;1.80;;;;;;;15.89;64.54;99032.09;4125497;28;20796;-54
2022/07/15 05:14:22;;;;;;;3.28;2.53;;;;;;;15.61;65.09;99036.13;4110162;28;20746;-52
2022/07/15 05:16:23;;;;;;;4.60;2.65;;;;;;;15.67;64.86;99039.72;4123756;28;20277;-54
2022/07/15 05:18:25;;;;;;;7.57;2.47;;;;;;;15.78;64.32;99045.03;4124258;28;20221;-52
2022/07/15 05:20:27;;;;;;;8.57;2.35;;;;;;;15.79;64.57;99052.22;4123540;28;20333;-52
2022/07/15 05:22:29;;;;;;;6.95;2.40;;;;;;;15.87;64.25;99035.13;4108946;28;21143;-51
2022/07/15 05:24:31;;;;;;;3.28;2.05;;;;;;;15.96;64.59;99038.19;4143249;28;20232;-52
2022/07/15 05:26:36;;;;;;;6.22;2.95;;;;;;;16.05;64.26;99045.66;4126360;28;20206;-52
2022/07/15 05:28:45;;;;;;;5.57;2.10;;;;;;;16.08;64.15;99042.34;4128841;28;20201;-52
2022/07/15 05:30:47;;;;;;;4.53;1.77;;;;;;;15.93;64.60;99055.28;4125773;28;20214;-52
2022/07/15 05:32:49;;;;;;;2.55;1.95;;;;;;;16.12;64.05;99053.69;4126286;28;20206;-53
2022/07/15 05:34:51;;;;;;;2.53;2.08;;;;;;;16.25;64.31;99058.69;4110940;28;20412;-52
2022/07/15 05:36:52;;;;;;;3.67;1.52;;;;;;;16.10;64.37;99061.41;4112060;28;20210;-55
2022/07/15 05:38:54;;;;;;;2.80;2.25;;;;;;;16.00;64.52;99062.22;4127610;28;20301;-52
2022/07/15 05:40:56;;;;;;;6.20;2.05;;;;;;;16.06;64.51;99061.13;4125307;28;20217;-51
2022/07/15 05:42:58;;;;;;;3.00;2.10;;;;;;;16.01;65.19;99058.34;4111039;28;20207;-51
2022/07/15 05:45:03;;;;;;;3.90;2.38;;;;;;;16.17;65.72;99062.78;4126858;28;20218;-52
2022/07/15 05:47:05;;;;;;;3.25;1.90;;;;;;;16.29;64.60;99063.38;4128044;28;20207;-52
2022/07/15 05:49:07;;;;;;;8.17;2.17;;;;;;;16.44;64.98;99062.63;4068077;28;1166858;-52
2022/07/15 05:51:09;;;;;;;3.47;1.92;;;;;;;16.57;64.10;99068.41;4123897;28;20212;-52
2022/07/15 05:53:11;;;;;;;5.13;2.45;;;;;;;16.62;64.97;99065.66;4128852;28;20294;-52
2022/07/15 05:55:16;;;;;;;6.43;2.20;;;;;;;16.66;64.69;99061.25;4144852;28;20197;-53
2022/07/15 05:57:18;;;;;;;6.93;2.03;;;;;;;16.84;64.85;99068.16;4112057;28;20642;-51
2022/07/15 05:59:20;;;;;;;2.20;1.60;;;;;;;17.17;64.42;99073.94;4127731;28;20668;-52
2022/07/15 06:01:23;;;;;;;3.13;2.10;;;;;;;17.40;63.29;99068.66;4128886;28;20221;-52
2022/07/15 06:03:25;;;;;;;2.45;1.45;;;;;;;17.40;62.59;99067.84;4129331;28;20239;-53
2022/07/15 06:05:28;;;;;;;4.15;2.00;;;;;;;17.61;62.66;99070.28;4123843;28;20237;-51
2022/07/15 06:07:29;;;;;;;3.50;1.50;;;;;;;17.76;61.44;99072.16;4128174;28;20253;-51
2022/07/15 06:09:31;;;;;;;2.90;1.60;;;;;;;18.15;61.20;99075.84;4143846;28;20226;-53
2022/07/15 06:11:33;;;;;;;3.78;2.50;;;;;;;17.65;61.14;99078.84;4143458;28;20209;-52
2022/07/15 06:13:35;;;;;;;3.65;1.65;;;;;;;18.03;60.98;99073.44;4126503;28;20206;-53
2022/07/15 06:15:37;;;;;;;6.68;1.70;;;;;;;18.33;61.07;99078.00;4124912;28;21207;-54
2022/07/15 06:17:39;;;;;;;1.65;1.30;;;;;;;18.54;60.21;99076.75;4123598;28;20253;-53
2022/07/15 06:19:41;;;;;;;9.32;1.70;;;;;;;18.71;59.58;99071.66;4125352;28;20234;-53
2022/07/15 06:21:43;;;;;;;2.15;1.35;;;;;;;18.89;59.45;99076.47;4144075;28;20217;-53
2022/07/15 06:23:44;;;;;;;6.78;1.70;;;;;;;19.08;58.90;99074.66;4126951;28;20821;-54
2022/07/15 06:25:47;;;;;;;2.22;1.50;;;;;;;19.20;58.64;99078.75;4126073;28;20588;-51
2022/07/15 06:27:48;;;;;;;1.90;1.67;;;;;;;19.34;58.06;99078.88;4140710;28;20206;-52
2022/07/15 06:29:53;;;;;;;2.53;1.40;;;;;;;19.54;58.14;99079.50;4123379;28;20230;-51
2022/07/15 06:31:55;;;;;;;2.42;1.50;;;;;;;19.71;57.04;99073.50;4125537;28;20210;-50
2022/07/15 06:33:59;;;;;;;6.07;1.38;;;;;;;19.69;57.32;99076.56;4144365;28;20205;-52
2022/07/15 06:36:00;;;;;;;3.03;1.77;;;;;;;19.81;57.04;99084.47;4125233;28;20203;-51
2022/07/15 06:38:02;;;;;;;3.15;1.45;;;;;;;19.89;56.50;99086.59;4128959;28;20248;-51
2022/07/15 06:40:04;;;;;;;3.60;1.88;;;;;;;20.03;55.27;99088.34;4127223;28;20233;-51
2022/07/15 06:42:06;;;;;;;3.03;1.20;;;;;;;20.06;55.77;99081.41;4127822;28;20206;-51
2022/07/15 06:44:08;;;;;;;4.07;1.48;;;;;;;20.12;54.75;99085.78;4125784;28;20625;-50
2022/07/15 06:46:10;;;;;;;1.67;1.05;;;;;;;19.97;55.17;99080.41;4124890;28;20233;-51
2022/07/15 06:48:12;;;;;;;3.92;1.73;;;;;;;19.83;55.15;99076.66;4126443;28;20217;-52
2022/07/15 06:50:14;;;;;;;2.15;1.10;;;;;;;19.72;55.75;99075.94;4109331;28;20230;-51
2022/07/15 06:52:16;;;;;;;4.53;1.25;;;;;;;19.70;56.20;99077.38;4145318;28;20207;-51
2022/07/15 06:56:20;;;;;;;1.85;1.20;;;;;;;19.85;55.67;99079.97;4123350;28;20225;-51
2022/07/15 06:58:22;;;;;;;4.30;1.17;;;;;;;19.97;55.22;99083.97;4112223;28;20202;-51
2022/07/15 07:00:24;;;;;;;4.35;1.80;;;;;;;20.22;54.96;99078.13;4111052;28;20282;-52
2022/07/15 07:02:26;;;;;;;3.38;1.10;;;;;;;20.37;54.73;99074.31;4101230;28;20207;-52
2022/07/15 07:04:28;;;;;;;4.80;1.42;;;;;;;20.02;54.80;99074.75;4116562;28;20630;-51
2022/07/15 07:06:30;;;;;;;3.50;1.60;;;;;;;19.92;55.11;99081.25;4101300;28;20321;-52
2022/07/15 07:08:35;;;;;;;2.45;1.38;;;;;;;19.89;55.20;99081.03;4109982;28;20230;-52
2022/07/15 07:10:36;;;;;;;3.05;1.42;;;;;;;20.21;55.39;99076.47;4108208;28;20232;-51
2022/07/15 07:12:38;;;;;;;3.22;1.35;;;;;;;20.44;54.87;99077.56;4109111;28;20289;-51
2022/07/15 07:14:40;;;;;;;4.00;1.27;;;;;;;20.61;54.65;99073.13;4110026;28;20211;-50
2022/07/15 07:16:42;;;;;;;1.85;0.95;;;;;;;20.75;54.25;99067.59;4121838;28;20208;-51
2022/07/15 07:18:50;;;;;;;6.32;1.30;;;;;;;21.03;53.63;99066.59;4104789;28;20241;-57
2022/07/15 07:20:52;;;;;;;3.22;1.42;;;;;;;21.02;53.20;99064.97;4120388;28;20201;-51
2022/07/15 07:22:53;;;;;;;1.75;1.17;;;;;;;21.05;53.71;99064.38;4110597;28;20940;-51
2022/07/15 07:24:55;;;;;;;2.85;1.10;;;;;;;21.01;53.67;99066.94;4110973;28;20589;-50
2022/07/15 07:26:57;;;;;;;2.30;1.30;;;;;;;20.99;53.25;99074.75;4110939;28;20266;-50
2022/07/15 07:29:06;;;;;;;13.07;1.50;;;;;;;20.93;53.16;99066.78;4088576;28;20279;-49
2022/07/15 07:31:10;;;;;;;1.83;1.10;;;;;;;20.95;53.51;99073.72;4106006;28;20203;-50
2022/07/15 07:33:15;;;;;;;5.00;1.27;;;;;;;21.09;52.55;99068.19;4110355;28;20234;-50
2022/07/15 07:35:19;;;;;;;2.53;1.27;;;;;;;20.95;53.17;99078.44;4122290;28;20206;-51
2022/07/15 07:37:21;;;;;;;1.83;1.55;;;;;;;20.97;52.16;99077.00;4106123;28;20262;-50
2022/07/15 07:39:23;;;;;;;1.58;1.23;;;;;;;21.21;52.44;99082.44;4088444;28;20308;-50
2022/07/15 07:41:25;;;;;;;2.40;1.17;;;;;;;21.30;51.52;99070.31;4104833;28;20241;-51
2022/07/15 07:43:27;;;;;;;7.50;1.15;;;;;;;20.94;51.72;99074.00;4096543;28;20215;-50
2022/07/15 07:45:29;;;;;;;4.28;1.00;;;;;;;21.10;52.50;99075.44;4112362;28;20241;-50
2022/07/15 07:47:40;;;;;;;1.90;1.20;;;;;;;21.17;51.55;99081.44;4109835;28;20755;-50
2022/07/15 07:49:41;;;;;;;5.30;1.77;;;;;;;21.19;52.14;99085.53;4110089;28;20273;-50
2022/07/15 07:51:43;;;;;;;4.57;1.38;;;;;;;21.35;50.67;99077.75;4096298;28;20266;-51
2022/07/15 07:53:46;;;;;;;2.97;1.63;;;;;;;21.25;50.07;99072.38;4110595;28;20214;-50
2022/07/15 07:55:48;;;;;;;3.08;1.42;;;;;;;21.52;50.70;99076.00;4107597;28;20218;-51
2022/07/15 07:57:55;;;;;;;3.63;1.30;;;;;;;21.33;50.86;99074.44;4103537;28;20211;-50
2022/07/15 07:59:57;;;;;;;1.75;1.40;;;;;;;21.70;51.04;99079.91;4101875;28;20314;-50
2022/07/15 08:01:59;;;;;;;1.45;1.23;;;;;;;21.92;51.08;99077.22;4116661;28;20211;-50
2022/07/15 08:04:01;;;;;;;1.65;0.93;;;;;;;22.22;50.14;99077.41;4104473;28;20218;-51
2022/07/15 08:06:03;;;;;;;1.52;1.13;;;;;;;22.02;48.19;99077.00;4111553;28;20230;-50
2022/07/15 08:08:13;;;;;;;1.95;1.13;;;;;;;22.02;49.62;99082.56;4105716;28;20210;-50
2022/07/15 08:10:15;;;;;;;4.07;1.20;;;;;;;21.82;49.12;99074.63;4122734;28;20280;-50
2022/07/15 08:12:17;;;;;;;6.32;1.20;;;;;;;21.97;49.14;99074.34;4103977;28;20207;-50
2022/07/15 08:14:19;;;;;;;1.42;1.00;;;;;;;21.65;48.72;99077.19;4105947;28;20278;-50
2022/07/15 08:16:21;;;;;;;2.67;0.98;;;;;;;21.47;48.97;99069.72;4095060;28;20207;-50
2022/07/15 08:18:23;;;;;;;1.75;1.05;;;;;;;21.71;49.63;99078.78;4105814;28;20218;-50
2022/07/15 08:20:25;;;;;;;2.60;1.23;;;;;;;22.12;48.91;99072.03;4119273;28;20222;-50
2022/07/15 08:22:27;;;;;;;5.78;1.35;;;;;;;22.25;48.07;99070.38;4110683;28;20776;-51
2022/07/15 08:24:29;;;;;;;5.03;1.40;;;;;;;22.38;48.88;99075.94;4120740;28;20210;-51
2022/07/15 08:26:30;;;;;;;4.60;1.50;;;;;;;22.41;47.22;99071.69;4106536;28;20242;-51
2022/07/15 08:28:32;;;;;;;3.10;1.40;;;;;;;22.22;46.96;99076.56;4104641;28;20465;-51
2022/07/15 08:30:54;;;;;;;3.70;1.33;;;;;;;;;;4105292;28;21078;-51
2022/07/15 08:32:56;;;;;;;3.08;1.60;;;;;;;21.89;48.19;99072.25;4104012;28;20221;-53
2022/07/15 08:34:58;;;;;;;1.90;0.85;;;;;;;22.28;47.58;99072.53;4104213;28;20202;-51
2022/07/15 08:37:05;;;;;;;4.80;1.33;;;;;;;21.78;47.55;99077.22;4090358;28;20207;-51
2022/07/15 08:39:06;;;;;;;6.35;1.20;;;;;;;22.36;48.08;99067.06;4107296;28;20314;-52
2022/07/15 08:41:08;;;;;;;2.15;1.10;;;;;;;22.65;48.01;99069.50;4111399;28;20210;-51
2022/07/15 08:43:11;;;;;;;2.58;1.42;;;;;;;22.39;46.71;99071.19;4109107;28;20409;-50
2022/07/15 08:45:15;;;;;;;3.97;1.48;;;;;;;22.72;47.94;99070.69;4091880;28;20207;-52
2022/07/15 08:47:17;;;;;;;4.78;1.00;;;;;;;23.27;46.82;99077.75;4103806;28;20693;-51
2022/07/15 08:49:39;;;;;;;1.50;0.90;;;;;;;23.56;46.46;99077.25;4114401;28;20245;-52
2022/07/15 08:51:44;;;;;;;2.97;1.08;;;;;;;23.76;45.50;99079.50;4109516;28;20215;-51
2022/07/15 08:53:45;;;;;;;2.30;0.85;;;;;;;23.70;46.22;99087.19;4111081;28;20202;-52
2022/07/15 08:55:48;;;;;;;3.13;0.82;;;;;;;23.81;46.27;99078.19;4095554;29;20219;-53
2022/07/15 08:57:52;;;;;;;5.35;1.05;;;;;;;24.16;45.88;99081.97;4097270;28;20215;-52
2022/07/15 08:59:54;;;;;;;3.92;1.08;;;;;;;24.10;44.51;99084.09;4106151;28;20240;-50
2022/07/15 09:01:55;;;;;;;2.55;1.00;;;;;;;24.11;44.21;99082.94;4122989;28;20913;-51
2022/07/15 09:03:58;;;;;;;1.27;0.85;;;;;;;24.09;45.15;99088.06;4105704;28;20201;-52
2022/07/15 09:06:00;;;;;;;3.25;1.25;;;;;;;23.99;45.43;99085.53;4105527;28;20223;-51
2022/07/15 09:08:14;;;;;;;3.75;1.77;;;;;;;23.84;45.56;99087.91;4108260;28;20210;-53
2022/07/15 09:10:15;;;;;;;1.75;1.17;;;;;;;23.99;44.10;99085.53;4118327;28;20228;-52
2022/07/15 09:12:17;;;;;;;6.47;1.10;;;;;;;24.11;45.29;99082.94;4110935;28;20826;-51
2022/07/15 09:14:19;;;;;;;3.90;1.50;;;;;;;24.01;46.39;99091.63;4104844;28;20206;-51
2022/07/15 09:16:23;;;;;;;2.88;1.25;;;;;;;23.87;45.56;99078.91;4122611;28;20206;-50
2022/07/15 09:18:28;;;;;;;4.28;0.82;;;;;;;23.65;45.98;99078.13;4105123;28;20241;-52
2022/07/15 09:20:30;;;;;;;2.15;1.02;;;;;;;23.47;46.14;99081.97;4104129;28;20229;-52
2022/07/15 09:22:53;;;;;;;2.20;1.17;;;;;;;22.86;44.67;99081.81;4100904;28;20844;-53
2022/07/15 09:25:15;;;;;;;3.78;0.93;;;;;;;22.97;45.86;99074.88;4104491;28;20670;-54
2022/07/15 09:27:40;;;;;;;3.30;1.30;;;;;;;22.97;45.58;99072.06;4105000;28;20577;-54
2022/07/15 09:34:24;;;;;;;3.67;1.20;;;;;;;24.14;44.67;99076.69;4119650;28;20218;-52
2022/07/15 09:36:29;;;;;;;5.05;1.17;;;;;;;24.50;43.08;99080.09;4103437;28;20285;-53
2022/07/15 09:38:34;;;;;;;5.03;1.10;;;;;;;24.56;43.66;99078.81;4118213;28;20222;-55
2022/07/15 09:40:47;;;;;;;3.88;1.35;;;;;;;24.46;43.71;99078.28;4102611;28;20230;-53
2022/07/15 09:43:05;;;;;;;7.88;1.55;;;;;;;24.21;44.26;99070.63;4110899;28;20218;-53
2022/07/15 09:45:20;;;;;;;4.22;1.63;;;;;;;23.63;43.22;99069.25;4119951;28;20756;-53
2022/07/15 09:47:24;;;;;;;3.35;1.52;;;;;;;23.56;43.38;99068.88;4092473;28;20241;-54
2022/07/15 09:49:26;;;;;;;2.95;1.40;;;;;;;23.91;42.52;99076.31;4105627;28;20228;-54
2022/07/15 09:51:29;;;;;;;1.88;0.90;;;;;;;24.56;43.75;99073.22;4103590;28;20210;-54
2022/07/15 09:53:32;;;;;;;3.20;1.15;;;;;;;25.12;42.95;99070.25;4109724;28;20643;-53